sensor_id;sensor_type;location;lat;lon;timestamp;pressure;altitude;pressure_sealevel;temperature;humidity
56176;BME280;63065;51.082;17.016;2023-03-03T00:01:18;100778.51;;;6.75;41.44
56176;BME280;63065;51.082;17.016;2023-03-03T00:03:44;100774.88;;;6.64;41.77
56176;BME280;63065;51.082;17.016;2023-03-03T00:06:11;100774.21;;;6.13;42.02
56176;BME280;63065;51.082;17.016;2023-03-03T00:08:34;100771.17;;;6.17;41.44
56176;BME280;63065;51.082;17.016;2023-03-03T00:11:00;100773.92;;;6.05;41.86
56176;BME280;63065;51.082;17.016;2023-03-03T00:13:26;100783.36;;;6.49;41.24
56176;BME280;63065;51.082;17.016;2023-03-03T00:15:51;100782.67;;;6.07;41.85
56176;BME280;63065;51.082;17.016;2023-03-03T00:18:21;100785.93;;;6.15;41.47
56176;BME280;63065;51.082;17.016;2023-03-03T00:20:47;100784.55;;;6.36;41.60
56176;BME280;63065;51.082;17.016;2023-03-03T00:23:16;100782.13;;;6.42;41.42
56176;BME280;63065;51.082;17.016;2023-03-03T00:25:34;100788.85;;;6.22;41.84
56176;BME280;63065;51.082;17.016;2023-03-03T00:28:00;100793.56;;;6.09;42.15
56176;BME280;63065;51.082;17.016;2023-03-03T00:30:25;100795.89;;;6.19;41.60
56176;BME280;63065;51.082;17.016;2023-03-03T00:32:48;100793.51;;;6.11;41.88
56176;BME280;63065;51.082;17.016;2023-03-03T00:35:23;100789.59;;;6.19;41.90
56176;BME280;63065;51.082;17.016;2023-03-03T00:37:40;100781.56;;;6.43;41.66
56176;BME280;63065;51.082;17.016;2023-03-03T00:40:15;100780.28;;;6.46;41.46
56176;BME280;63065;51.082;17.016;2023-03-03T00:42:34;100775.78;;;6.53;41.60
56176;BME280;63065;51.082;17.016;2023-03-03T00:44:57;100769.81;;;6.11;42.05
56176;BME280;63065;51.082;17.016;2023-03-03T00:47:27;100770.57;;;6.07;42.13
56176;BME280;63065;51.082;17.016;2023-03-03T00:49:46;100772.58;;;6.13;42.17
56176;BME280;63065;51.082;17.016;2023-03-03T00:52:15;100768.97;;;5.82;42.13
56176;BME280;63065;51.082;17.016;2023-03-03T00:54:37;100769.33;;;6.20;42.23
56176;BME280;63065;51.082;17.016;2023-03-03T00:57:03;100769.01;;;5.99;42.28
56176;BME280;63065;51.082;17.016;2023-03-03T00:59:28;100765.52;;;6.45;41.91
56176;BME280;63065;51.082;17.016;2023-03-03T01:01:54;100760.23;;;6.22;42.44
56176;BME280;63065;51.082;17.016;2023-03-03T01:04:19;100762.23;;;5.89;42.60
56176;BME280;63065;51.082;17.016;2023-03-03T01:06:44;100757.38;;;5.77;42.47
56176;BME280;63065;51.082;17.016;2023-03-03T01:09:10;100757.03;;;5.82;42.11
56176;BME280;63065;51.082;17.016;2023-03-03T01:11:36;100758.94;;;5.96;42.53
56176;BME280;63065;51.082;17.016;2023-03-03T01:14:01;100760.13;;;5.99;42.13
56176;BME280;63065;51.082;17.016;2023-03-03T01:16:27;100764.05;;;5.67;42.66
56176;BME280;63065;51.082;17.016;2023-03-03T01:18:52;100758.12;;;5.98;42.20
56176;BME280;63065;51.082;17.016;2023-03-03T01:21:18;100759.26;;;6.08;42.19
56176;BME280;63065;51.082;17.016;2023-03-03T01:23:43;100756.03;;;5.97;41.91
56176;BME280;63065;51.082;17.016;2023-03-03T01:26:09;100752.18;;;6.10;42.06
56176;BME280;63065;51.082;17.016;2023-03-03T01:28:34;100750.05;;;5.59;41.92
56176;BME280;63065;51.082;17.016;2023-03-03T01:31:01;100748.62;;;5.74;42.61
56176;BME280;63065;51.082;17.016;2023-03-03T01:33:26;100747.71;;;5.73;43.38
56176;BME280;63065;51.082;17.016;2023-03-03T01:35:51;100745.11;;;5.72;43.22
56176;BME280;63065;51.082;17.016;2023-03-03T01:38:17;100734.46;;;5.80;42.55
56176;BME280;63065;51.082;17.016;2023-03-03T01:40:42;100729.18;;;5.95;42.04
56176;BME280;63065;51.082;17.016;2023-03-03T01:43:09;100729.65;;;5.69;41.98
56176;BME280;63065;51.082;17.016;2023-03-03T01:45:42;100726.47;;;5.61;42.01
56176;BME280;63065;51.082;17.016;2023-03-03T01:48:01;100724.52;;;5.95;42.05
56176;BME280;63065;51.082;17.016;2023-03-03T01:50:30;100723.38;;;5.99;40.91
56176;BME280;63065;51.082;17.016;2023-03-03T01:52:49;100723.72;;;5.55;41.81
56176;BME280;63065;51.082;17.016;2023-03-03T01:55:19;100726.69;;;5.80;41.81
56176;BME280;63065;51.082;17.016;2023-03-03T01:57:42;100723.03;;;5.59;42.11
56176;BME280;63065;51.082;17.016;2023-03-03T02:00:06;100715.95;;;5.78;42.06
56176;BME280;63065;51.082;17.016;2023-03-03T02:02:31;100710.96;;;5.78;41.36
56176;BME280;63065;51.082;17.016;2023-03-03T02:04:56;100716.17;;;5.72;41.82
56176;BME280;63065;51.082;17.016;2023-03-03T02:07:21;100715.42;;;5.74;41.39
56176;BME280;63065;51.082;17.016;2023-03-03T02:09:51;100720.83;;;5.39;41.81
56176;BME280;63065;51.082;17.016;2023-03-03T02:12:13;100718.45;;;5.72;41.72
56176;BME280;63065;51.082;17.016;2023-03-03T02:14:36;100720.08;;;5.57;41.48
56176;BME280;63065;51.082;17.016;2023-03-03T02:17:02;100717.37;;;5.41;42.14
56176;BME280;63065;51.082;17.016;2023-03-03T02:19:34;100711.31;;;5.07;42.47
56176;BME280;63065;51.082;17.016;2023-03-03T02:21:52;100707.66;;;5.15;42.83
56176;BME280;63065;51.082;17.016;2023-03-03T02:24:23;100702.28;;;5.19;42.64
56176;BME280;63065;51.082;17.016;2023-03-03T02:26:43;100695.37;;;5.42;42.57
56176;BME280;63065;51.082;17.016;2023-03-03T02:29:09;100692.20;;;5.34;42.59
56176;BME280;63065;51.082;17.016;2023-03-03T02:31:35;100691.90;;;5.72;42.18
56176;BME280;63065;51.082;17.016;2023-03-03T02:33:59;100708.06;;;5.22;42.53
56176;BME280;63065;51.082;17.016;2023-03-03T02:36:27;100713.44;;;5.29;42.56
56176;BME280;63065;51.082;17.016;2023-03-03T02:38:55;100710.70;;;5.08;42.98
56176;BME280;63065;51.082;17.016;2023-03-03T02:41:21;100709.55;;;5.16;42.42
56176;BME280;63065;51.082;17.016;2023-03-03T02:43:45;100707.51;;;5.19;43.02
56176;BME280;63065;51.082;17.016;2023-03-03T02:46:06;100707.62;;;5.25;42.66
56176;BME280;63065;51.082;17.016;2023-03-03T02:48:33;100708.57;;;4.87;43.50
56176;BME280;63065;51.082;17.016;2023-03-03T02:50:57;100708.50;;;4.76;43.44
56176;BME280;63065;51.082;17.016;2023-03-03T02:53:23;100716.97;;;4.30;44.53
56176;BME280;63065;51.082;17.016;2023-03-03T02:55:49;100721.65;;;3.84;45.11
56176;BME280;63065;51.082;17.016;2023-03-03T02:58:14;100725.26;;;4.28;44.78
56176;BME280;63065;51.082;17.016;2023-03-03T03:00:39;100734.91;;;4.35;45.04
56176;BME280;63065;51.082;17.016;2023-03-03T03:03:04;100740.79;;;4.32;45.39
56176;BME280;63065;51.082;17.016;2023-03-03T03:05:30;100746.01;;;4.31;45.05
56176;BME280;63065;51.082;17.016;2023-03-03T03:07:56;100746.28;;;4.97;44.27
56176;BME280;63065;51.082;17.016;2023-03-03T03:10:22;100742.72;;;5.07;44.02
56176;BME280;63065;51.082;17.016;2023-03-03T03:12:47;100749.23;;;5.08;43.81
56176;BME280;63065;51.082;17.016;2023-03-03T03:15:12;100748.49;;;4.57;44.07
56176;BME280;63065;51.082;17.016;2023-03-03T03:17:37;100743.00;;;4.75;43.85
56176;BME280;63065;51.082;17.016;2023-03-03T03:20:03;100742.89;;;5.10;43.39
56176;BME280;63065;51.082;17.016;2023-03-03T03:22:28;100742.19;;;5.24;42.94
56176;BME280;63065;51.082;17.016;2023-03-03T03:24:53;100737.94;;;5.24;43.25
56176;BME280;63065;51.082;17.016;2023-03-03T03:27:19;100736.17;;;4.99;43.13
56176;BME280;63065;51.082;17.016;2023-03-03T03:29:44;100724.80;;;5.06;43.53
56176;BME280;63065;51.082;17.016;2023-03-03T03:32:09;100714.30;;;4.80;43.77
56176;BME280;63065;51.082;17.016;2023-03-03T03:34:34;100707.79;;;5.42;44.11
56176;BME280;63065;51.082;17.016;2023-03-03T03:37:00;100707.31;;;4.85;43.85
56176;BME280;63065;51.082;17.016;2023-03-03T03:39:25;100713.13;;;4.88;43.52
56176;BME280;63065;51.082;17.016;2023-03-03T03:41:51;100712.97;;;5.31;43.03
56176;BME280;63065;51.082;17.016;2023-03-03T03:44:17;100704.80;;;5.16;42.97
56176;BME280;63065;51.082;17.016;2023-03-03T03:46:42;100706.15;;;5.49;42.56
56176;BME280;63065;51.082;17.016;2023-03-03T03:49:08;100706.52;;;5.34;43.01
56176;BME280;63065;51.082;17.016;2023-03-03T03:51:34;100708.23;;;5.34;43.26
56176;BME280;63065;51.082;17.016;2023-03-03T03:53:58;100717.17;;;5.05;43.46
56176;BME280;63065;51.082;17.016;2023-03-03T03:56:24;100720.63;;;5.21;42.62
56176;BME280;63065;51.082;17.016;2023-03-03T03:58:49;100731.44;;;5.08;42.53
56176;BME280;63065;51.082;17.016;2023-03-03T04:01:16;100730.86;;;5.17;43.17
56176;BME280;63065;51.082;17.016;2023-03-03T04:03:40;100725.35;;;5.34;42.56
56176;BME280;63065;51.082;17.016;2023-03-03T04:06:06;100728.15;;;5.38;42.98
56176;BME280;63065;51.082;17.016;2023-03-03T04:08:31;100733.95;;;5.44;42.74
56176;BME280;63065;51.082;17.016;2023-03-03T04:10:57;100735.43;;;5.31;42.60
56176;BME280;63065;51.082;17.016;2023-03-03T04:13:22;100738.80;;;5.22;42.73
56176;BME280;63065;51.082;17.016;2023-03-03T04:15:47;100747.32;;;5.51;42.62
56176;BME280;63065;51.082;17.016;2023-03-03T04:18:13;100746.53;;;5.52;42.53
56176;BME280;63065;51.082;17.016;2023-03-03T04:20:39;100742.92;;;5.52;42.12
56176;BME280;63065;51.082;17.016;2023-03-03T04:23:04;100745.29;;;5.33;42.71
56176;BME280;63065;51.082;17.016;2023-03-03T04:25:29;100751.09;;;5.38;42.20
56176;BME280;63065;51.082;17.016;2023-03-03T04:27:55;100753.81;;;5.30;42.46
56176;BME280;63065;51.082;17.016;2023-03-03T04:30:20;100757.91;;;4.94;43.11
56176;BME280;63065;51.082;17.016;2023-03-03T04:32:45;100755.22;;;4.82;43.26
56176;BME280;63065;51.082;17.016;2023-03-03T04:35:10;100756.88;;;4.96;42.84
56176;BME280;63065;51.082;17.016;2023-03-03T04:37:36;100748.41;;;5.05;43.67
56176;BME280;63065;51.082;17.016;2023-03-03T04:40:01;100746.53;;;5.12;43.09
56176;BME280;63065;51.082;17.016;2023-03-03T04:42:27;100751.58;;;5.39;42.56
56176;BME280;63065;51.082;17.016;2023-03-03T04:44:52;100762.97;;;5.63;42.54
56176;BME280;63065;51.082;17.016;2023-03-03T04:47:17;100762.08;;;5.24;43.24
56176;BME280;63065;51.082;17.016;2023-03-03T04:49:43;100763.21;;;5.23;42.97
56176;BME280;63065;51.082;17.016;2023-03-03T04:52:08;100763.87;;;5.22;43.15
56176;BME280;63065;51.082;17.016;2023-03-03T04:54:34;100766.75;;;5.11;43.30
56176;BME280;63065;51.082;17.016;2023-03-03T04:56:59;100769.39;;;4.92;44.32
56176;BME280;63065;51.082;17.016;2023-03-03T04:59:24;100768.70;;;5.11;43.58
56176;BME280;63065;51.082;17.016;2023-03-03T05:01:49;100765.21;;;4.60;44.08
56176;BME280;63065;51.082;17.016;2023-03-03T05:04:15;100761.71;;;4.79;43.87
56176;BME280;63065;51.082;17.016;2023-03-03T05:06:40;100759.51;;;4.49;44.07
56176;BME280;63065;51.082;17.016;2023-03-03T05:09:05;100762.31;;;4.42;44.04
56176;BME280;63065;51.082;17.016;2023-03-03T05:11:30;100759.49;;;4.13;45.01
56176;BME280;63065;51.082;17.016;2023-03-03T05:13:56;100760.67;;;4.52;44.88
56176;BME280;63065;51.082;17.016;2023-03-03T05:16:21;100756.71;;;4.66;43.66
56176;BME280;63065;51.082;17.016;2023-03-03T05:18:46;100749.35;;;4.81;43.81
56176;BME280;63065;51.082;17.016;2023-03-03T05:21:12;100745.43;;;5.05;43.48
56176;BME280;63065;51.082;17.016;2023-03-03T05:23:38;100744.49;;;5.46;43.15
56176;BME280;63065;51.082;17.016;2023-03-03T05:26:04;100737.92;;;5.33;42.89
56176;BME280;63065;51.082;17.016;2023-03-03T05:28:29;100743.85;;;5.17;42.48
56176;BME280;63065;51.082;17.016;2023-03-03T05:30:55;100757.16;;;4.66;43.65
56176;BME280;63065;51.082;17.016;2023-03-03T05:33:20;100762.42;;;4.26;44.80
56176;BME280;63065;51.082;17.016;2023-03-03T05:35:46;100757.78;;;4.39;44.81
56176;BME280;63065;51.082;17.016;2023-03-03T05:38:11;100752.17;;;4.74;43.33
56176;BME280;63065;51.082;17.016;2023-03-03T05:40:37;100761.70;;;4.67;43.86
56176;BME280;63065;51.082;17.016;2023-03-03T05:43:01;100753.73;;;4.47;44.63
56176;BME280;63065;51.082;17.016;2023-03-03T05:45:27;100752.31;;;4.28;43.92
56176;BME280;63065;51.082;17.016;2023-03-03T05:47:53;100751.70;;;4.68;43.34
56176;BME280;63065;51.082;17.016;2023-03-03T05:50:18;100754.25;;;4.46;43.16
56176;BME280;63065;51.082;17.016;2023-03-03T05:52:42;100751.38;;;4.32;44.17
56176;BME280;63065;51.082;17.016;2023-03-03T05:55:09;100758.36;;;4.37;44.24
56176;BME280;63065;51.082;17.016;2023-03-03T05:57:39;100755.37;;;4.16;43.50
56176;BME280;63065;51.082;17.016;2023-03-03T05:59:59;100757.36;;;4.60;43.06
56176;BME280;63065;51.082;17.016;2023-03-03T06:02:25;100763.14;;;4.37;43.83
56176;BME280;63065;51.082;17.016;2023-03-03T06:04:50;100765.17;;;4.88;43.76
56176;BME280;63065;51.082;17.016;2023-03-03T06:07:16;100758.32;;;5.03;43.02
56176;BME280;63065;51.082;17.016;2023-03-03T06:09:41;100761.82;;;4.82;42.54
56176;BME280;63065;51.082;17.016;2023-03-03T06:12:06;100768.01;;;4.90;42.89
56176;BME280;63065;51.082;17.016;2023-03-03T06:14:32;100770.72;;;4.76;43.24
56176;BME280;63065;51.082;17.016;2023-03-03T06:16:57;100771.22;;;4.52;43.88
56176;BME280;63065;51.082;17.016;2023-03-03T06:19:23;100777.64;;;4.60;44.21
56176;BME280;63065;51.082;17.016;2023-03-03T06:21:48;100765.53;;;4.18;44.25
56176;BME280;63065;51.082;17.016;2023-03-03T06:24:14;100765.47;;;4.51;43.89
56176;BME280;63065;51.082;17.016;2023-03-03T06:26:39;100775.88;;;4.84;43.02
56176;BME280;63065;51.082;17.016;2023-03-03T06:29:04;100787.10;;;3.67;44.26
56176;BME280;63065;51.082;17.016;2023-03-03T06:31:30;100791.80;;;4.26;43.41
56176;BME280;63065;51.082;17.016;2023-03-03T06:33:56;100799.76;;;4.61;43.01
56176;BME280;63065;51.082;17.016;2023-03-03T06:36:21;100802.72;;;3.98;44.05
56176;BME280;63065;51.082;17.016;2023-03-03T06:38:47;100803.59;;;4.13;44.21
56176;BME280;63065;51.082;17.016;2023-03-03T06:41:12;100798.83;;;4.10;44.28
56176;BME280;63065;51.082;17.016;2023-03-03T06:43:38;100791.57;;;4.16;44.17
56176;BME280;63065;51.082;17.016;2023-03-03T06:46:04;100779.93;;;4.40;43.39
56176;BME280;63065;51.082;17.016;2023-03-03T06:48:30;100782.38;;;4.76;43.54
56176;BME280;63065;51.082;17.016;2023-03-03T06:50:59;100783.12;;;3.70;44.22
56176;BME280;63065;51.082;17.016;2023-03-03T06:53:20;100781.73;;;5.01;43.11
56176;BME280;63065;51.082;17.016;2023-03-03T06:55:46;100794.27;;;4.49;42.77
56176;BME280;63065;51.082;17.016;2023-03-03T06:58:13;100790.49;;;4.89;42.96
56176;BME280;63065;51.082;17.016;2023-03-03T07:00:37;100789.86;;;4.68;43.36
56176;BME280;63065;51.082;17.016;2023-03-03T07:03:11;100793.21;;;3.96;43.53
56176;BME280;63065;51.082;17.016;2023-03-03T07:05:28;100800.70;;;4.68;42.96
56176;BME280;63065;51.082;17.016;2023-03-03T07:07:54;100806.12;;;4.73;42.97
56176;BME280;63065;51.082;17.016;2023-03-03T07:10:23;100805.69;;;4.28;43.60
56176;BME280;63065;51.082;17.016;2023-03-03T07:12:44;100810.24;;;2.83;45.62
56176;BME280;63065;51.082;17.016;2023-03-03T07:15:13;100825.52;;;4.23;44.34
56176;BME280;63065;51.082;17.016;2023-03-03T07:17:35;100831.52;;;4.09;44.43
56176;BME280;63065;51.082;17.016;2023-03-03T07:20:00;100828.33;;;3.14;45.42
56176;BME280;63065;51.082;17.016;2023-03-03T07:22:27;100833.81;;;3.82;45.26
56176;BME280;63065;51.082;17.016;2023-03-03T07:24:54;100837.03;;;3.84;44.83
56176;BME280;63065;51.082;17.016;2023-03-03T07:27:22;100842.50;;;3.73;44.63
56176;BME280;63065;51.082;17.016;2023-03-03T07:29:42;100845.25;;;3.68;44.20
56176;BME280;63065;51.082;17.016;2023-03-03T07:32:17;100841.26;;;3.80;44.23
56176;BME280;63065;51.082;17.016;2023-03-03T07:34:37;100840.19;;;4.19;43.56
56176;BME280;63065;51.082;17.016;2023-03-03T07:37:01;100838.08;;;4.19;43.29
56176;BME280;63065;51.082;17.016;2023-03-03T07:39:29;100829.36;;;3.96;43.79
56176;BME280;63065;51.082;17.016;2023-03-03T07:41:49;100826.29;;;4.56;42.67
56176;BME280;63065;51.082;17.016;2023-03-03T07:44:19;100822.31;;;4.74;42.84
56176;BME280;63065;51.082;17.016;2023-03-03T07:46:41;100819.49;;;4.65;42.39
56176;BME280;63065;51.082;17.016;2023-03-03T07:49:19;100827.56;;;4.81;41.67
56176;BME280;63065;51.082;17.016;2023-03-03T07:51:37;100817.38;;;4.73;42.61
56176;BME280;63065;51.082;17.016;2023-03-03T07:56:28;100827.55;;;4.62;42.54
56176;BME280;63065;51.082;17.016;2023-03-03T07:58:48;100828.10;;;4.67;42.01
56176;BME280;63065;51.082;17.016;2023-03-03T08:03:37;100826.89;;;4.23;42.53
56176;BME280;63065;51.082;17.016;2023-03-03T08:06:10;100825.43;;;5.13;42.13
56176;BME280;63065;51.082;17.016;2023-03-03T08:08:30;100828.19;;;5.06;41.43
56176;BME280;63065;51.082;17.016;2023-03-03T08:10:55;100821.36;;;4.82;41.98
56176;BME280;63065;51.082;17.016;2023-03-03T08:13:21;100823.51;;;5.10;41.35
56176;BME280;63065;51.082;17.016;2023-03-03T08:15:46;100821.62;;;4.68;41.37
56176;BME280;63065;51.082;17.016;2023-03-03T08:18:20;100821.77;;;4.59;41.91
56176;BME280;63065;51.082;17.016;2023-03-03T08:20:44;100822.26;;;4.39;42.39
56176;BME280;63065;51.082;17.016;2023-03-03T08:23:01;100820.40;;;4.39;42.03
56176;BME280;63065;51.082;17.016;2023-03-03T08:25:27;100825.87;;;5.10;40.68
56176;BME280;63065;51.082;17.016;2023-03-03T08:27:52;100825.90;;;5.23;40.55
56176;BME280;63065;51.082;17.016;2023-03-03T08:30:18;100823.12;;;5.52;40.25
56176;BME280;63065;51.082;17.016;2023-03-03T08:32:44;100819.17;;;5.37;40.49
56176;BME280;63065;51.082;17.016;2023-03-03T08:35:10;100822.16;;;4.89;41.37
56176;BME280;63065;51.082;17.016;2023-03-03T08:37:34;100816.72;;;4.44;42.32
56176;BME280;63065;51.082;17.016;2023-03-03T08:40:00;100814.21;;;4.43;42.25
56176;BME280;63065;51.082;17.016;2023-03-03T08:42:25;100814.04;;;4.00;43.09
56176;BME280;63065;51.082;17.016;2023-03-03T08:44:51;100819.15;;;3.84;42.86
56176;BME280;63065;51.082;17.016;2023-03-03T08:47:17;100817.09;;;4.45;43.05
56176;BME280;63065;51.082;17.016;2023-03-03T08:49:42;100827.42;;;4.91;42.25
56176;BME280;63065;51.082;17.016;2023-03-03T08:52:07;100835.11;;;5.15;41.10
56176;BME280;63065;51.082;17.016;2023-03-03T08:54:32;100843.39;;;4.95;40.85
56176;BME280;63065;51.082;17.016;2023-03-03T08:56:58;100845.41;;;5.22;40.32
56176;BME280;63065;51.082;17.016;2023-03-03T08:59:23;100846.76;;;5.58;40.45
56176;BME280;63065;51.082;17.016;2023-03-03T09:01:48;100844.85;;;5.76;39.96
56176;BME280;63065;51.082;17.016;2023-03-03T09:04:14;100849.40;;;5.29;39.80
56176;BME280;63065;51.082;17.016;2023-03-03T09:06:39;100851.01;;;5.59;40.24
56176;BME280;63065;51.082;17.016;2023-03-03T09:09:05;100846.77;;;5.72;40.30
56176;BME280;63065;51.082;17.016;2023-03-03T09:11:30;100844.84;;;5.79;40.19
56176;BME280;63065;51.082;17.016;2023-03-03T09:14:01;100850.74;;;5.41;40.23
56176;BME280;63065;51.082;17.016;2023-03-03T09:16:20;100852.50;;;5.15;40.83
56176;BME280;63065;51.082;17.016;2023-03-03T09:18:46;100850.32;;;4.37;41.46
56176;BME280;63065;51.082;17.016;2023-03-03T09:21:20;100851.82;;;4.94;41.91
56176;BME280;63065;51.082;17.016;2023-03-03T09:23:39;100859.66;;;5.04;41.26
56176;BME280;63065;51.082;17.016;2023-03-03T09:28:30;100866.98;;;4.38;42.73
56176;BME280;63065;51.082;17.016;2023-03-03T09:30:56;100867.97;;;4.65;42.18
56176;BME280;63065;51.082;17.016;2023-03-03T09:33:23;100872.65;;;4.71;41.77
56176;BME280;63065;51.082;17.016;2023-03-03T09:35:45;100872.49;;;4.89;42.08
56176;BME280;63065;51.082;17.016;2023-03-03T09:40:47;100875.73;;;4.69;41.94
56176;BME280;63065;51.082;17.016;2023-03-03T09:43:04;100873.96;;;4.68;41.72
56176;BME280;63065;51.082;17.016;2023-03-03T09:45:37;100871.58;;;4.68;41.47
56176;BME280;63065;51.082;17.016;2023-03-03T09:48:08;100870.00;;;4.70;42.52
56176;BME280;63065;51.082;17.016;2023-03-03T09:50:27;100872.15;;;5.02;41.11
56176;BME280;63065;51.082;17.016;2023-03-03T09:52:51;100876.84;;;4.84;41.66
56176;BME280;63065;51.082;17.016;2023-03-03T09:55:21;100872.21;;;4.42;42.06
56176;BME280;63065;51.082;17.016;2023-03-03T09:57:45;100871.98;;;5.13;41.51
56176;BME280;63065;51.082;17.016;2023-03-03T10:00:15;100874.82;;;4.29;41.37
56176;BME280;63065;51.082;17.016;2023-03-03T10:02:34;100874.59;;;4.57;41.27
56176;BME280;63065;51.082;17.016;2023-03-03T10:04:58;100880.29;;;4.97;41.56
56176;BME280;63065;51.082;17.016;2023-03-03T10:07:24;100884.31;;;5.22;40.62
56176;BME280;63065;51.082;17.016;2023-03-03T10:12:11;100879.26;;;5.59;40.71
56176;BME280;63065;51.082;17.016;2023-03-03T10:14:46;100878.79;;;5.72;40.71
56176;BME280;63065;51.082;17.016;2023-03-03T10:17:08;100878.63;;;5.89;39.78
56176;BME280;63065;51.082;17.016;2023-03-03T10:19:35;100878.41;;;5.54;39.33
56176;BME280;63065;51.082;17.016;2023-03-03T10:21:52;100871.77;;;4.72;41.13
56176;BME280;63065;51.082;17.016;2023-03-03T10:24:23;100875.14;;;4.49;41.49
56176;BME280;63065;51.082;17.016;2023-03-03T10:26:50;100881.63;;;5.12;41.48
56176;BME280;63065;51.082;17.016;2023-03-03T10:29:20;100874.24;;;5.19;41.29
56176;BME280;63065;51.082;17.016;2023-03-03T10:31:44;100877.54;;;5.77;41.18
56176;BME280;63065;51.082;17.016;2023-03-03T10:34:05;100877.90;;;5.74;39.86
56176;BME280;63065;51.082;17.016;2023-03-03T10:36:31;100881.56;;;5.59;40.23
56176;BME280;63065;51.082;17.016;2023-03-03T10:38:58;100876.88;;;5.06;40.73
56176;BME280;63065;51.082;17.016;2023-03-03T10:41:24;100879.15;;;5.21;40.56
56176;BME280;63065;51.082;17.016;2023-03-03T10:43:50;100875.15;;;4.70;41.78
56176;BME280;63065;51.082;17.016;2023-03-03T10:46:14;100869.47;;;4.38;41.95
56176;BME280;63065;51.082;17.016;2023-03-03T10:48:44;100866.18;;;5.02;42.02
56176;BME280;63065;51.082;17.016;2023-03-03T10:51:01;100867.60;;;5.25;41.21
56176;BME280;63065;51.082;17.016;2023-03-03T10:53:24;100866.62;;;5.34;40.98
56176;BME280;63065;51.082;17.016;2023-03-03T10:55:53;100866.34;;;4.92;41.03
56176;BME280;63065;51.082;17.016;2023-03-03T11:00:43;100861.61;;;5.57;40.57
56176;BME280;63065;51.082;17.016;2023-03-03T11:05:34;100859.96;;;5.50;40.89
56176;BME280;63065;51.082;17.016;2023-03-03T11:07:57;100850.96;;;5.86;40.51
56176;BME280;63065;51.082;17.016;2023-03-03T11:10:30;100848.67;;;6.36;39.29
56176;BME280;63065;51.082;17.016;2023-03-03T11:12:52;100846.13;;;6.23;39.43
56176;BME280;63065;51.082;17.016;2023-03-03T11:15:21;100841.25;;;6.29;39.65
56176;BME280;63065;51.082;17.016;2023-03-03T11:17:47;100836.81;;;5.62;40.25
56176;BME280;63065;51.082;17.016;2023-03-03T11:20:05;100834.81;;;6.20;39.32
56176;BME280;63065;51.082;17.016;2023-03-03T11:22:35;100838.24;;;5.63;40.28
56176;BME280;63065;51.082;17.016;2023-03-03T11:25:00;100842.03;;;5.74;40.70
56176;BME280;63065;51.082;17.016;2023-03-03T11:27:31;100842.77;;;6.22;40.10
56176;BME280;63065;51.082;17.016;2023-03-03T11:29:51;100840.71;;;5.97;39.60
56176;BME280;63065;51.082;17.016;2023-03-03T11:32:18;100843.68;;;5.91;40.03
56176;BME280;63065;51.082;17.016;2023-03-03T11:34:47;100836.46;;;6.46;38.87
56176;BME280;63065;51.082;17.016;2023-03-03T11:37:04;100832.79;;;6.29;39.30
56176;BME280;63065;51.082;17.016;2023-03-03T11:39:25;100825.68;;;6.35;39.20
56176;BME280;63065;51.082;17.016;2023-03-03T11:41:57;100826.84;;;5.98;39.34
56176;BME280;63065;51.082;17.016;2023-03-03T11:44:20;100825.71;;;6.55;39.09
56176;BME280;63065;51.082;17.016;2023-03-03T11:46:45;100818.54;;;6.41;38.69
56176;BME280;63065;51.082;17.016;2023-03-03T11:49:10;100818.92;;;6.31;39.02
56176;BME280;63065;51.082;17.016;2023-03-03T11:51:40;100821.01;;;7.10;38.44
56176;BME280;63065;51.082;17.016;2023-03-03T11:54:00;100821.79;;;6.29;38.58
56176;BME280;63065;51.082;17.016;2023-03-03T11:56:25;100816.51;;;6.59;38.15
56176;BME280;63065;51.082;17.016;2023-03-03T11:58:55;100812.12;;;6.19;38.90
56176;BME280;63065;51.082;17.016;2023-03-03T12:01:18;100813.00;;;6.25;38.70
56176;BME280;63065;51.082;17.016;2023-03-03T12:03:40;100815.36;;;6.67;39.05
56176;BME280;63065;51.082;17.016;2023-03-03T12:06:12;100817.58;;;6.71;38.93
56176;BME280;63065;51.082;17.016;2023-03-03T12:08:37;100817.57;;;6.72;38.80
56176;BME280;63065;51.082;17.016;2023-03-03T12:11:01;100820.84;;;6.31;39.43
56176;BME280;63065;51.082;17.016;2023-03-03T12:13:27;100818.36;;;5.94;39.45
56176;BME280;63065;51.082;17.016;2023-03-03T12:15:50;100811.34;;;6.76;39.03
56176;BME280;63065;51.082;17.016;2023-03-03T12:18:26;100812.58;;;6.71;38.27
56176;BME280;63065;51.082;17.016;2023-03-03T12:20:41;100810.77;;;6.19;38.93
56176;BME280;63065;51.082;17.016;2023-03-03T12:23:10;100812.20;;;6.12;38.60
56176;BME280;63065;51.082;17.016;2023-03-03T12:25:34;100813.30;;;5.64;39.83
56176;BME280;63065;51.082;17.016;2023-03-03T12:27:58;100813.84;;;5.69;40.28
56176;BME280;63065;51.082;17.016;2023-03-03T12:30:26;100810.18;;;5.61;39.99
56176;BME280;63065;51.082;17.016;2023-03-03T12:32:54;100807.40;;;5.85;39.73
56176;BME280;63065;51.082;17.016;2023-03-03T12:35:16;100810.20;;;5.96;39.62
56176;BME280;63065;51.082;17.016;2023-03-03T12:37:46;100809.55;;;5.30;40.07
56176;BME280;63065;51.082;17.016;2023-03-03T12:40:07;100812.21;;;5.18;40.81
56176;BME280;63065;51.082;17.016;2023-03-03T12:42:38;100803.98;;;5.70;39.79
56176;BME280;63065;51.082;17.016;2023-03-03T12:44:58;100800.59;;;6.09;39.44
56176;BME280;63065;51.082;17.016;2023-03-03T12:47:24;100803.05;;;6.09;39.48
56176;BME280;63065;51.082;17.016;2023-03-03T12:49:47;100804.91;;;5.50;39.96
56176;BME280;63065;51.082;17.016;2023-03-03T12:52:17;100802.67;;;5.73;39.82
56176;BME280;63065;51.082;17.016;2023-03-03T12:54:42;100803.53;;;5.64;40.21
56176;BME280;63065;51.082;17.016;2023-03-03T12:57:02;100806.83;;;5.86;39.97